sensor_id;sensor_type;location;lat;lon;timestamp;P1;durP1;ratioP1;P2;durP2;ratioP2
68168;SDS011;54981;50.206;15.978;2022-10-30T00:01:21;34.35;;;24.17;;
68168;SDS011;54981;50.206;15.978;2022-10-30T00:03:47;28.52;;;23.83;;
68168;SDS011;54981;50.206;15.978;2022-10-30T00:06:12;31.20;;;24.80;;
68168;SDS011;54981;50.206;15.978;2022-10-30T00:08:37;26.52;;;23.35;;
68168;SDS011;54981;50.206;15.978;2022-10-30T00:11:06;25.17;;;22.45;;
68168;SDS011;54981;50.206;15.978;2022-10-30T00:13:32;26.05;;;22.05;;
68168;SDS011;54981;50.206;15.978;2022-10-30T00:15:58;26.58;;;22.70;;
68168;SDS011;54981;50.206;15.978;2022-10-30T00:18:23;23.20;;;19.48;;
68168;SDS011;54981;50.206;15.978;2022-10-30T00:20:48;26.65;;;20.83;;
68168;SDS011;54981;50.206;15.978;2022-10-30T00:23:14;28.90;;;24.98;;
68168;SDS011;54981;50.206;15.978;2022-10-30T00:25:40;29.88;;;22.88;;
68168;SDS011;54981;50.206;15.978;2022-10-30T00:28:05;33.38;;;23.50;;
68168;SDS011;54981;50.206;15.978;2022-10-30T00:30:32;28.52;;;22.90;;
68168;SDS011;54981;50.206;15.978;2022-10-30T00:32:58;27.58;;;23.13;;
68168;SDS011;54981;50.206;15.978;2022-10-30T00:35:24;30.15;;;23.23;;
68168;SDS011;54981;50.206;15.978;2022-10-30T00:37:49;31.23;;;22.55;;
68168;SDS011;54981;50.206;15.978;2022-10-30T00:40:15;26.80;;;22.48;;
68168;SDS011;54981;50.206;15.978;2022-10-30T00:42:41;24.58;;;21.92;;
68168;SDS011;54981;50.206;15.978;2022-10-30T00:45:09;26.45;;;22.67;;
68168;SDS011;54981;50.206;15.978;2022-10-30T00:47:37;28.70;;;23.27;;
68168;SDS011;54981;50.206;15.978;2022-10-30T00:50:11;25.98;;;20.85;;
68168;SDS011;54981;50.206;15.978;2022-10-30T00:52:43;31.15;;;23.58;;
68168;SDS011;54981;50.206;15.978;2022-10-30T00:55:16;28.92;;;23.58;;
68168;SDS011;54981;50.206;15.978;2022-10-30T00:57:46;28.55;;;25.15;;
68168;SDS011;54981;50.206;15.978;2022-10-30T01:00:12;29.92;;;25.15;;
68168;SDS011;54981;50.206;15.978;2022-10-30T01:02:39;35.50;;;27.75;;
68168;SDS011;54981;50.206;15.978;2022-10-30T01:05:07;29.58;;;24.83;;
68168;SDS011;54981;50.206;15.978;2022-10-30T01:07:33;34.67;;;26.38;;
68168;SDS011;54981;50.206;15.978;2022-10-30T01:09:59;31.52;;;27.08;;
68168;SDS011;54981;50.206;15.978;2022-10-30T01:12:24;36.35;;;28.38;;
68168;SDS011;54981;50.206;15.978;2022-10-30T01:14:51;31.75;;;26.15;;
68168;SDS011;54981;50.206;15.978;2022-10-30T01:17:30;30.42;;;25.00;;
68168;SDS011;54981;50.206;15.978;2022-10-30T01:26:18;26.67;;;23.77;;
68168;SDS011;54981;50.206;15.978;2022-10-30T01:31:41;27.05;;;23.70;;
68168;SDS011;54981;50.206;15.978;2022-10-30T01:34:17;29.83;;;24.17;;
68168;SDS011;54981;50.206;15.978;2022-10-30T01:37:00;25.05;;;22.35;;
68168;SDS011;54981;50.206;15.978;2022-10-30T01:39:33;28.08;;;24.90;;
68168;SDS011;54981;50.206;15.978;2022-10-30T01:42:36;34.10;;;26.13;;
68168;SDS011;54981;50.206;15.978;2022-10-30T01:50:50;28.95;;;25.17;;
68168;SDS011;54981;50.206;15.978;2022-10-30T01:54:14;27.52;;;23.05;;
68168;SDS011;54981;50.206;15.978;2022-10-30T01:56:40;24.88;;;21.05;;
68168;SDS011;54981;50.206;15.978;2022-10-30T02:01:41;23.55;;;20.95;;
68168;SDS011;54981;50.206;15.978;2022-10-30T02:04:07;25.15;;;21.95;;
68168;SDS011;54981;50.206;15.978;2022-10-30T02:06:36;27.15;;;24.13;;
68168;SDS011;54981;50.206;15.978;2022-10-30T02:09:03;24.92;;;22.25;;
68168;SDS011;54981;50.206;15.978;2022-10-30T02:11:29;24.52;;;21.15;;
68168;SDS011;54981;50.206;15.978;2022-10-30T02:14:00;23.67;;;20.85;;
68168;SDS011;54981;50.206;15.978;2022-10-30T02:16:29;24.20;;;20.58;;
68168;SDS011;54981;50.206;15.978;2022-10-30T02:18:55;22.35;;;20.05;;
68168;SDS011;54981;50.206;15.978;2022-10-30T02:21:20;28.13;;;22.70;;
68168;SDS011;54981;50.206;15.978;2022-10-30T02:23:46;24.58;;;22.15;;
68168;SDS011;54981;50.206;15.978;2022-10-30T02:26:11;24.55;;;22.05;;
68168;SDS011;54981;50.206;15.978;2022-10-30T02:28:37;23.92;;;21.55;;
68168;SDS011;54981;50.206;15.978;2022-10-30T02:31:02;23.35;;;20.95;;
68168;SDS011;54981;50.206;15.978;2022-10-30T02:33:27;29.05;;;25.27;;
68168;SDS011;54981;50.206;15.978;2022-10-30T02:35:53;26.02;;;23.40;;
68168;SDS011;54981;50.206;15.978;2022-10-30T02:38:18;24.10;;;21.60;;
68168;SDS011;54981;50.206;15.978;2022-10-30T02:40:44;25.60;;;23.00;;
68168;SDS011;54981;50.206;15.978;2022-10-30T02:43:09;24.33;;;21.92;;
68168;SDS011;54981;50.206;15.978;2022-10-30T02:45:35;27.70;;;22.92;;
68168;SDS011;54981;50.206;15.978;2022-10-30T02:48:00;28.40;;;25.33;;
68168;SDS011;54981;50.206;15.978;2022-10-30T02:50:26;28.90;;;24.95;;
68168;SDS011;54981;50.206;15.978;2022-10-30T02:52:51;27.52;;;24.63;;
68168;SDS011;54981;50.206;15.978;2022-10-30T02:55:16;25.85;;;23.05;;
68168;SDS011;54981;50.206;15.978;2022-10-30T02:57:42;23.25;;;20.73;;
68168;SDS011;54981;50.206;15.978;2022-10-30T03:00:07;26.13;;;23.48;;
68168;SDS011;54981;50.206;15.978;2022-10-30T03:02:33;23.95;;;21.48;;
68168;SDS011;54981;50.206;15.978;2022-10-30T03:04:58;23.85;;;21.52;;
68168;SDS011;54981;50.206;15.978;2022-10-30T03:07:24;23.20;;;20.80;;
68168;SDS011;54981;50.206;15.978;2022-10-30T03:09:49;24.30;;;22.17;;
68168;SDS011;54981;50.206;15.978;2022-10-30T03:12:16;26.63;;;23.95;;
68168;SDS011;54981;50.206;15.978;2022-10-30T03:14:41;24.58;;;22.02;;
68168;SDS011;54981;50.206;15.978;2022-10-30T03:17:06;25.58;;;23.05;;
68168;SDS011;54981;50.206;15.978;2022-10-30T03:19:32;23.50;;;21.30;;
68168;SDS011;54981;50.206;15.978;2022-10-30T03:21:57;23.88;;;21.48;;
68168;SDS011;54981;50.206;15.978;2022-10-30T03:24:22;25.02;;;22.70;;
68168;SDS011;54981;50.206;15.978;2022-10-30T03:26:48;24.60;;;22.23;;
68168;SDS011;54981;50.206;15.978;2022-10-30T03:29:13;25.15;;;22.85;;
68168;SDS011;54981;50.206;15.978;2022-10-30T03:31:38;28.33;;;25.58;;
68168;SDS011;54981;50.206;15.978;2022-10-30T03:34:04;25.17;;;22.77;;
68168;SDS011;54981;50.206;15.978;2022-10-30T03:36:29;23.00;;;20.88;;
68168;SDS011;54981;50.206;15.978;2022-10-30T03:38:54;24.90;;;22.55;;
68168;SDS011;54981;50.206;15.978;2022-10-30T03:41:20;21.27;;;19.23;;
68168;SDS011;54981;50.206;15.978;2022-10-30T03:43:46;20.25;;;18.10;;
68168;SDS011;54981;50.206;15.978;2022-10-30T03:46:11;20.88;;;18.90;;
68168;SDS011;54981;50.206;15.978;2022-10-30T03:48:36;23.13;;;20.77;;
68168;SDS011;54981;50.206;15.978;2022-10-30T03:51:02;22.90;;;20.65;;
68168;SDS011;54981;50.206;15.978;2022-10-30T03:53:28;25.67;;;23.40;;
68168;SDS011;54981;50.206;15.978;2022-10-30T03:55:58;22.80;;;20.73;;
68168;SDS011;54981;50.206;15.978;2022-10-30T03:58:25;21.58;;;19.58;;
68168;SDS011;54981;50.206;15.978;2022-10-30T04:00:51;23.02;;;20.98;;
68168;SDS011;54981;50.206;15.978;2022-10-30T04:03:17;21.63;;;19.65;;
68168;SDS011;54981;50.206;15.978;2022-10-30T04:05:42;22.77;;;20.63;;
68168;SDS011;54981;50.206;15.978;2022-10-30T04:08:10;23.77;;;21.55;;
68168;SDS011;54981;50.206;15.978;2022-10-30T04:10:40;22.17;;;20.23;;
68168;SDS011;54981;50.206;15.978;2022-10-30T04:13:08;23.42;;;21.33;;
68168;SDS011;54981;50.206;15.978;2022-10-30T04:15:34;25.60;;;23.40;;
68168;SDS011;54981;50.206;15.978;2022-10-30T04:18:00;25.55;;;23.05;;
68168;SDS011;54981;50.206;15.978;2022-10-30T04:20:26;26.58;;;24.17;;
68168;SDS011;54981;50.206;15.978;2022-10-30T04:22:58;24.02;;;21.80;;
68168;SDS011;54981;50.206;15.978;2022-10-30T04:25:26;25.77;;;23.48;;
68168;SDS011;54981;50.206;15.978;2022-10-30T04:27:53;23.95;;;21.85;;
68168;SDS011;54981;50.206;15.978;2022-10-30T04:30:18;23.50;;;21.40;;
68168;SDS011;54981;50.206;15.978;2022-10-30T04:32:49;23.20;;;21.17;;
68168;SDS011;54981;50.206;15.978;2022-10-30T04:35:17;24.10;;;21.90;;
68168;SDS011;54981;50.206;15.978;2022-10-30T04:37:50;23.92;;;21.83;;
68168;SDS011;54981;50.206;15.978;2022-10-30T04:40:17;23.65;;;21.65;;
68168;SDS011;54981;50.206;15.978;2022-10-30T04:42:45;23.67;;;21.38;;
68168;SDS011;54981;50.206;15.978;2022-10-30T04:45:11;22.65;;;20.60;;
68168;SDS011;54981;50.206;15.978;2022-10-30T04:47:36;23.08;;;21.02;;
68168;SDS011;54981;50.206;15.978;2022-10-30T04:50:02;23.80;;;21.75;;
68168;SDS011;54981;50.206;15.978;2022-10-30T04:52:27;26.52;;;24.13;;
68168;SDS011;54981;50.206;15.978;2022-10-30T04:54:53;24.40;;;22.10;;
68168;SDS011;54981;50.206;15.978;2022-10-30T04:57:18;22.65;;;20.60;;
68168;SDS011;54981;50.206;15.978;2022-10-30T04:59:43;23.65;;;21.55;;
68168;SDS011;54981;50.206;15.978;2022-10-30T05:02:09;24.13;;;22.02;;
68168;SDS011;54981;50.206;15.978;2022-10-30T05:04:34;28.88;;;26.17;;
68168;SDS011;54981;50.206;15.978;2022-10-30T05:06:59;26.80;;;24.40;;
68168;SDS011;54981;50.206;15.978;2022-10-30T05:09:26;27.30;;;24.83;;
68168;SDS011;54981;50.206;15.978;2022-10-30T05:11:51;26.33;;;23.90;;
68168;SDS011;54981;50.206;15.978;2022-10-30T05:14:16;24.73;;;22.40;;
68168;SDS011;54981;50.206;15.978;2022-10-30T05:16:42;24.95;;;22.65;;
68168;SDS011;54981;50.206;15.978;2022-10-30T05:19:07;24.23;;;22.13;;
68168;SDS011;54981;50.206;15.978;2022-10-30T05:21:32;24.40;;;22.20;;
68168;SDS011;54981;50.206;15.978;2022-10-30T05:23:58;24.27;;;22.05;;
68168;SDS011;54981;50.206;15.978;2022-10-30T05:26:23;23.42;;;21.13;;
68168;SDS011;54981;50.206;15.978;2022-10-30T05:28:48;21.05;;;19.05;;
68168;SDS011;54981;50.206;15.978;2022-10-30T05:31:14;22.80;;;20.60;;
68168;SDS011;54981;50.206;15.978;2022-10-30T05:33:39;24.02;;;21.70;;
68168;SDS011;54981;50.206;15.978;2022-10-30T05:36:04;23.00;;;20.83;;
68168;SDS011;54981;50.206;15.978;2022-10-30T05:38:30;22.23;;;20.20;;
68168;SDS011;54981;50.206;15.978;2022-10-30T05:40:55;23.90;;;21.80;;
68168;SDS011;54981;50.206;15.978;2022-10-30T05:43:20;23.60;;;21.58;;
68168;SDS011;54981;50.206;15.978;2022-10-30T05:45:47;21.95;;;20.00;;
68168;SDS011;54981;50.206;15.978;2022-10-30T05:48:14;23.92;;;21.63;;
68168;SDS011;54981;50.206;15.978;2022-10-30T05:50:39;19.20;;;17.40;;
68168;SDS011;54981;50.206;15.978;2022-10-30T05:53:05;19.17;;;17.48;;
68168;SDS011;54981;50.206;15.978;2022-10-30T05:55:31;25.67;;;23.27;;
68168;SDS011;54981;50.206;15.978;2022-10-30T05:57:57;25.02;;;22.83;;
68168;SDS011;54981;50.206;15.978;2022-10-30T06:00:23;22.90;;;20.60;;
68168;SDS011;54981;50.206;15.978;2022-10-30T06:02:50;24.92;;;22.50;;
68168;SDS011;54981;50.206;15.978;2022-10-30T06:05:15;25.63;;;21.45;;
68168;SDS011;54981;50.206;15.978;2022-10-30T06:07:40;27.40;;;24.63;;
68168;SDS011;54981;50.206;15.978;2022-10-30T06:10:06;24.38;;;22.00;;
68168;SDS011;54981;50.206;15.978;2022-10-30T06:12:31;26.60;;;24.02;;
68168;SDS011;54981;50.206;15.978;2022-10-30T06:14:57;26.23;;;23.67;;
68168;SDS011;54981;50.206;15.978;2022-10-30T06:17:22;27.27;;;24.50;;
68168;SDS011;54981;50.206;15.978;2022-10-30T06:19:47;28.77;;;25.73;;
68168;SDS011;54981;50.206;15.978;2022-10-30T06:22:13;27.30;;;24.70;;
68168;SDS011;54981;50.206;15.978;2022-10-30T06:24:38;26.63;;;23.92;;
68168;SDS011;54981;50.206;15.978;2022-10-30T06:27:03;25.42;;;23.02;;
68168;SDS011;54981;50.206;15.978;2022-10-30T06:29:28;25.17;;;22.58;;
68168;SDS011;54981;50.206;15.978;2022-10-30T06:31:54;28.63;;;26.00;;
68168;SDS011;54981;50.206;15.978;2022-10-30T06:34:19;27.10;;;24.48;;
68168;SDS011;54981;50.206;15.978;2022-10-30T06:36:44;28.35;;;25.33;;
68168;SDS011;54981;50.206;15.978;2022-10-30T06:39:10;29.95;;;26.98;;
68168;SDS011;54981;50.206;15.978;2022-10-30T06:41:35;29.42;;;26.58;;
68168;SDS011;54981;50.206;15.978;2022-10-30T06:44:00;31.67;;;28.83;;
68168;SDS011;54981;50.206;15.978;2022-10-30T06:46:26;32.28;;;28.88;;
68168;SDS011;54981;50.206;15.978;2022-10-30T06:48:51;32.40;;;29.20;;
68168;SDS011;54981;50.206;15.978;2022-10-30T06:51:16;31.17;;;28.27;;
68168;SDS011;54981;50.206;15.978;2022-10-30T06:53:42;29.83;;;27.00;;
68168;SDS011;54981;50.206;15.978;2022-10-30T06:56:08;28.55;;;25.85;;
68168;SDS011;54981;50.206;15.978;2022-10-30T06:58:33;25.92;;;23.50;;
68168;SDS011;54981;50.206;15.978;2022-10-30T07:01:03;26.35;;;23.85;;
68168;SDS011;54981;50.206;15.978;2022-10-30T07:03:31;28.10;;;25.33;;
68168;SDS011;54981;50.206;15.978;2022-10-30T07:05:57;30.45;;;27.27;;
68168;SDS011;54981;50.206;15.978;2022-10-30T07:08:22;38.38;;;34.35;;
68168;SDS011;54981;50.206;15.978;2022-10-30T07:10:48;29.00;;;26.25;;
68168;SDS011;54981;50.206;15.978;2022-10-30T07:13:14;30.02;;;27.02;;
68168;SDS011;54981;50.206;15.978;2022-10-30T07:15:39;28.13;;;25.23;;
68168;SDS011;54981;50.206;15.978;2022-10-30T07:18:05;29.65;;;26.02;;
68168;SDS011;54981;50.206;15.978;2022-10-30T07:20:31;28.98;;;25.85;;
68168;SDS011;54981;50.206;15.978;2022-10-30T07:22:58;29.25;;;26.20;;
68168;SDS011;54981;50.206;15.978;2022-10-30T07:25:24;29.00;;;25.85;;
68168;SDS011;54981;50.206;15.978;2022-10-30T07:27:50;28.52;;;25.63;;
68168;SDS011;54981;50.206;15.978;2022-10-30T07:30:18;25.67;;;23.08;;
68168;SDS011;54981;50.206;15.978;2022-10-30T07:32:45;25.88;;;23.17;;
68168;SDS011;54981;50.206;15.978;2022-10-30T07:35:19;24.38;;;21.65;;
68168;SDS011;54981;50.206;15.978;2022-10-30T07:37:45;24.88;;;22.45;;
68168;SDS011;54981;50.206;15.978;2022-10-30T07:40:10;29.35;;;24.42;;
68168;SDS011;54981;50.206;15.978;2022-10-30T07:42:35;28.77;;;25.95;;
68168;SDS011;54981;50.206;15.978;2022-10-30T07:45:01;27.17;;;24.58;;
68168;SDS011;54981;50.206;15.978;2022-10-30T07:47:26;28.17;;;25.17;;
68168;SDS011;54981;50.206;15.978;2022-10-30T07:49:51;27.30;;;24.45;;
68168;SDS011;54981;50.206;15.978;2022-10-30T07:52:17;25.00;;;22.35;;
68168;SDS011;54981;50.206;15.978;2022-10-30T07:54:42;25.75;;;23.35;;
68168;SDS011;54981;50.206;15.978;2022-10-30T07:57:07;26.75;;;22.80;;
68168;SDS011;54981;50.206;15.978;2022-10-30T07:59:33;23.73;;;21.40;;
68168;SDS011;54981;50.206;15.978;2022-10-30T08:01:58;22.40;;;20.10;;
68168;SDS011;54981;50.206;15.978;2022-10-30T08:04:24;22.33;;;20.10;;
68168;SDS011;54981;50.206;15.978;2022-10-30T08:06:50;21.30;;;19.13;;
68168;SDS011;54981;50.206;15.978;2022-10-30T08:09:15;20.08;;;17.88;;
68168;SDS011;54981;50.206;15.978;2022-10-30T08:11:41;19.48;;;17.42;;
68168;SDS011;54981;50.206;15.978;2022-10-30T08:14:06;18.90;;;16.63;;
68168;SDS011;54981;50.206;15.978;2022-10-30T08:16:31;18.65;;;16.33;;
68168;SDS011;54981;50.206;15.978;2022-10-30T08:18:57;16.65;;;14.50;;
68168;SDS011;54981;50.206;15.978;2022-10-30T08:21:22;17.48;;;15.65;;
68168;SDS011;54981;50.206;15.978;2022-10-30T08:23:47;19.20;;;17.40;;
68168;SDS011;54981;50.206;15.978;2022-10-30T08:26:13;17.90;;;16.05;;
68168;SDS011;54981;50.206;15.978;2022-10-30T08:28:38;18.08;;;16.17;;
68168;SDS011;54981;50.206;15.978;2022-10-30T08:31:04;17.05;;;14.82;;
68168;SDS011;54981;50.206;15.978;2022-10-30T08:33:30;18.83;;;15.77;;
68168;SDS011;54981;50.206;15.978;2022-10-30T08:35:56;15.63;;;13.95;;
68168;SDS011;54981;50.206;15.978;2022-10-30T08:38:22;15.63;;;13.98;;
68168;SDS011;54981;50.206;15.978;2022-10-30T08:40:48;14.50;;;13.00;;
68168;SDS011;54981;50.206;15.978;2022-10-30T08:43:14;16.45;;;13.75;;
68168;SDS011;54981;50.206;15.978;2022-10-30T08:45:40;15.48;;;13.88;;
68168;SDS011;54981;50.206;15.978;2022-10-30T08:48:06;15.38;;;13.48;;
68168;SDS011;54981;50.206;15.978;2022-10-30T08:50:34;16.08;;;12.43;;
68168;SDS011;54981;50.206;15.978;2022-10-30T08:53:00;14.70;;;13.02;;
68168;SDS011;54981;50.206;15.978;2022-10-30T08:55:27;13.45;;;12.05;;
68168;SDS011;54981;50.206;15.978;2022-10-30T08:57:53;13.13;;;11.90;;
68168;SDS011;54981;50.206;15.978;2022-10-30T09:00:18;14.88;;;11.55;;
68168;SDS011;54981;50.206;15.978;2022-10-30T09:02:43;18.60;;;11.15;;
68168;SDS011;54981;50.206;15.978;2022-10-30T09:05:09;14.48;;;11.77;;
68168;SDS011;54981;50.206;15.978;2022-10-30T09:07:34;12.50;;;11.15;;
68168;SDS011;54981;50.206;15.978;2022-10-30T09:10:00;12.98;;;10.35;;
68168;SDS011;54981;50.206;15.978;2022-10-30T09:12:25;14.00;;;8.65;;
68168;SDS011;54981;50.206;15.978;2022-10-30T09:14:51;10.05;;;8.50;;
68168;SDS011;54981;50.206;15.978;2022-10-30T09:17:16;9.52;;;8.52;;
68168;SDS011;54981;50.206;15.978;2022-10-30T09:19:42;12.52;;;7.90;;
68168;SDS011;54981;50.206;15.978;2022-10-30T09:22:07;9.88;;;7.97;;
68168;SDS011;54981;50.206;15.978;2022-10-30T09:24:32;11.68;;;8.90;;
68168;SDS011;54981;50.206;15.978;2022-10-30T09:26:58;9.63;;;8.57;;
68168;SDS011;54981;50.206;15.978;2022-10-30T09:29:23;10.73;;;8.45;;
68168;SDS011;54981;50.206;15.978;2022-10-30T09:31:48;12.52;;;8.02;;
68168;SDS011;54981;50.206;15.978;2022-10-30T09:34:14;10.73;;;7.97;;
68168;SDS011;54981;50.206;15.978;2022-10-30T09:36:39;8.23;;;7.15;;
68168;SDS011;54981;50.206;15.978;2022-10-30T09:39:07;14.75;;;7.97;;
68168;SDS011;54981;50.206;15.978;2022-10-30T09:41:42;12.27;;;8.75;;
68168;SDS011;54981;50.206;15.978;2022-10-30T09:47:29;10.20;;;7.68;;
68168;SDS011;54981;50.206;15.978;2022-10-30T09:50:15;13.15;;;8.55;;
68168;SDS011;54981;50.206;15.978;2022-10-30T09:53:06;9.85;;;7.88;;
68168;SDS011;54981;50.206;15.978;2022-10-30T09:55:39;10.88;;;7.63;;
68168;SDS011;54981;50.206;15.978;2022-10-30T10:01:18;13.02;;;8.63;;
68168;SDS011;54981;50.206;15.978;2022-10-30T10:06:26;11.60;;;8.52;;
68168;SDS011;54981;50.206;15.978;2022-10-30T10:08:53;13.45;;;8.63;;
68168;SDS011;54981;50.206;15.978;2022-10-30T10:11:37;9.52;;;8.00;;
68168;SDS011;54981;50.206;15.978;2022-10-30T10:14:07;17.35;;;8.73;;
68168;SDS011;54981;50.206;15.978;2022-10-30T10:16:38;13.90;;;8.82;;
68168;SDS011;54981;50.206;15.978;2022-10-30T10:21:44;11.45;;;8.85;;
68168;SDS011;54981;50.206;15.978;2022-10-30T10:24:18;13.02;;;8.48;;
68168;SDS011;54981;50.206;15.978;2022-10-30T10:26:47;12.77;;;8.57;;
68168;SDS011;54981;50.206;15.978;2022-10-30T10:29:28;12.02;;;8.10;;
68168;SDS011;54981;50.206;15.978;2022-10-30T10:32:19;11.55;;;7.88;;
68168;SDS011;54981;50.206;15.978;2022-10-30T10:50:57;10.30;;;7.25;;
68168;SDS011;54981;50.206;15.978;2022-10-30T10:56:17;12.27;;;6.90;;
68168;SDS011;54981;50.206;15.978;2022-10-30T11:01:21;12.77;;;7.55;;
68168;SDS011;54981;50.206;15.978;2022-10-30T11:04:13;13.88;;;8.00;;
68168;SDS011;54981;50.206;15.978;2022-10-30T11:06:41;11.40;;;7.22;;
68168;SDS011;54981;50.206;15.978;2022-10-30T11:09:20;15.40;;;7.65;;
68168;SDS011;54981;50.206;15.978;2022-10-30T11:11:47;10.95;;;7.97;;
68168;SDS011;54981;50.206;15.978;2022-10-30T11:14:15;12.55;;;7.00;;
68168;SDS011;54981;50.206;15.978;2022-10-30T11:19:14;12.98;;;7.78;;
68168;SDS011;54981;50.206;15.978;2022-10-30T11:21:58;14.10;;;6.78;;
68168;SDS011;54981;50.206;15.978;2022-10-30T11:24:34;9.57;;;6.93;;
68168;SDS011;54981;50.206;15.978;2022-10-30T11:29:48;13.15;;;7.55;;
68168;SDS011;54981;50.206;15.978;2022-10-30T11:32:23;14.57;;;8.35;;
68168;SDS011;54981;50.206;15.978;2022-10-30T11:35:24;14.15;;;8.38;;
68168;SDS011;54981;50.206;15.978;2022-10-30T11:37:45;11.25;;;7.93;;
68168;SDS011;54981;50.206;15.978;2022-10-30T11:42:38;10.85;;;7.43;;
68168;SDS011;54981;50.206;15.978;2022-10-30T11:45:14;12.00;;;8.00;;
68168;SDS011;54981;50.206;15.978;2022-10-30T11:47:42;10.55;;;7.07;;
68168;SDS011;54981;50.206;15.978;2022-10-30T11:50:18;16.75;;;8.10;;
68168;SDS011;54981;50.206;15.978;2022-10-30T11:52:46;12.45;;;6.85;;
68168;SDS011;54981;50.206;15.978;2022-10-30T11:55:22;14.85;;;7.22;;
68168;SDS011;54981;50.206;15.978;2022-10-30T11:57:55;14.98;;;6.43;;
68168;SDS011;54981;50.206;15.978;2022-10-30T12:00:24;10.80;;;6.65;;
68168;SDS011;54981;50.206;15.978;2022-10-30T12:02:52;11.98;;;7.55;;
68168;SDS011;54981;50.206;15.978;2022-10-30T12:07:52;12.48;;;7.93;;
68168;SDS011;54981;50.206;15.978;2022-10-30T12:10:28;13.65;;;7.60;;
68168;SDS011;54981;50.206;15.978;2022-10-30T12:12:54;14.00;;;6.68;;
68168;SDS011;54981;50.206;15.978;2022-10-30T12:15:20;14.05;;;7.07;;
68168;SDS011;54981;50.206;15.978;2022-10-30T12:17:59;16.02;;;7.70;;
68168;SDS011;54981;50.206;15.978;2022-10-30T12:20:26;13.07;;;7.28;;
68168;SDS011;54981;50.206;15.978;2022-10-30T12:22:53;13.95;;;7.43;;
68168;SDS011;54981;50.206;15.978;2022-10-30T12:25:28;13.13;;;6.75;;
68168;SDS011;54981;50.206;15.978;2022-10-30T12:27:59;11.52;;;7.63;;
68168;SDS011;54981;50.206;15.978;2022-10-30T12:30:29;11.75;;;7.40;;
68168;SDS011;54981;50.206;15.978;2022-10-30T12:35:56;10.63;;;7.63;;
68168;SDS011;54981;50.206;15.978;2022-10-30T12:44:12;10.48;;;7.22;;
68168;SDS011;54981;50.206;15.978;2022-10-30T12:55:08;11.65;;;7.35;;
68168;SDS011;54981;50.206;15.978;2022-10-30T13:04:00;13.13;;;7.47;;
68168;SDS011;54981;50.206;15.978;2022-10-30T13:06:35;13.48;;;7.35;;
68168;SDS011;54981;50.206;15.978;2022-10-30T13:14:11;23.83;;;11.57;;
68168;SDS011;54981;50.206;15.978;2022-10-30T13:16:40;13.43;;;7.32;;
68168;SDS011;54981;50.206;15.978;2022-10-30T13:19:08;13.98;;;7.47;;
68168;SDS011;54981;50.206;15.978;2022-10-30T13:30:33;14.60;;;8.27;;
68168;SDS011;54981;50.206;15.978;2022-10-30T13:33:14;14.05;;;8.57;;
68168;SDS011;54981;50.206;15.978;2022-10-30T13:35:52;10.48;;;8.02;;
68168;SDS011;54981;50.206;15.978;2022-10-30T13:41:05;13.55;;;8.48;;
68168;SDS011;54981;50.206;15.978;2022-10-30T13:43:47;12.15;;;8.23;;
68168;SDS011;54981;50.206;15.978;2022-10-30T13:46:31;11.20;;;7.68;;
68168;SDS011;54981;50.206;15.978;2022-10-30T13:54:28;13.82;;;8.75;;
68168;SDS011;54981;50.206;15.978;2022-10-30T13:57:00;20.30;;;12.23;;
68168;SDS011;54981;50.206;15.978;2022-10-30T13:59:47;15.50;;;10.27;;
68168;SDS011;54981;50.206;15.978;2022-10-30T14:08:12;18.17;;;11.43;;
68168;SDS011;54981;50.206;15.978;2022-10-30T14:10:57;26.88;;;14.77;;
68168;SDS011;54981;50.206;15.978;2022-10-30T14:13:25;18.60;;;11.70;;
68168;SDS011;54981;50.206;15.978;2022-10-30T14:15:53;16.42;;;10.05;;
68168;SDS011;54981;50.206;15.978;2022-10-30T14:18:24;14.52;;;7.45;;
68168;SDS011;54981;50.206;15.978;2022-10-30T14:21:28;16.92;;;9.65;;
68168;SDS011;54981;50.206;15.978;2022-10-30T14:24:01;12.00;;;8.35;;
68168;SDS011;54981;50.206;15.978;2022-10-30T14:26:35;15.93;;;8.85;;
68168;SDS011;54981;50.206;15.978;2022-10-30T14:29:28;20.80;;;9.90;;
68168;SDS011;54981;50.206;15.978;2022-10-30T14:32:41;18.60;;;12.23;;
68168;SDS011;54981;50.206;15.978;2022-10-30T14:37:16;21.85;;;13.25;;
68168;SDS011;54981;50.206;15.978;2022-10-30T14:43:25;13.73;;;9.60;;
68168;SDS011;54981;50.206;15.978;2022-10-30T14:45:52;11.75;;;9.30;;
68168;SDS011;54981;50.206;15.978;2022-10-30T14:56:34;13.73;;;8.85;;
68168;SDS011;54981;50.206;15.978;2022-10-30T14:59:30;15.60;;;9.88;;
68168;SDS011;54981;50.206;15.978;2022-10-30T15:07:26;17.60;;;9.10;;
68168;SDS011;54981;50.206;15.978;2022-10-30T15:12:46;12.57;;;9.27;;
68168;SDS011;54981;50.206;15.978;2022-10-30T15:15:15;16.17;;;8.48;;
68168;SDS011;54981;50.206;15.978;2022-10-30T15:17:43;15.80;;;8.98;;
68168;SDS011;54981;50.206;15.978;2022-10-30T15:20:25;15.35;;;8.68;;
68168;SDS011;54981;50.206;15.978;2022-10-30T15:22:57;12.45;;;8.85;;
68168;SDS011;54981;50.206;15.978;2022-10-30T15:25:28;20.60;;;10.20;;
68168;SDS011;54981;50.206;15.978;2022-10-30T15:28:01;15.52;;;9.30;;
68168;SDS011;54981;50.206;15.978;2022-10-30T15:30:27;15.93;;;10.05;;
68168;SDS011;54981;50.206;15.978;2022-10-30T15:32:53;13.75;;;9.80;;
68168;SDS011;54981;50.206;15.978;2022-10-30T15:35:19;16.10;;;10.50;;
68168;SDS011;54981;50.206;15.978;2022-10-30T15:37:58;15.15;;;9.88;;
68168;SDS011;54981;50.206;15.978;2022-10-30T15:40:24;20.35;;;10.30;;
68168;SDS011;54981;50.206;15.978;2022-10-30T15:42:50;15.40;;;9.90;;
68168;SDS011;54981;50.206;15.978;2022-10-30T15:45:17;15.43;;;9.55;;
68168;SDS011;54981;50.206;15.978;2022-10-30T15:47:46;19.08;;;10.18;;
68168;SDS011;54981;50.206;15.978;2022-10-30T15:50:13;20.60;;;11.60;;
68168;SDS011;54981;50.206;15.978;2022-10-30T15:52:40;19.80;;;10.90;;
68168;SDS011;54981;50.206;15.978;2022-10-30T15:55:07;17.80;;;11.60;;
68168;SDS011;54981;50.206;15.978;2022-10-30T15:57:46;18.98;;;13.35;;
68168;SDS011;54981;50.206;15.978;2022-10-30T16:00:19;17.38;;;13.40;;
68168;SDS011;54981;50.206;15.978;2022-10-30T16:02:47;21.08;;;10.13;;
68168;SDS011;54981;50.206;15.978;2022-10-30T16:05:20;16.80;;;11.05;;
68168;SDS011;54981;50.206;15.978;2022-10-30T16:07:46;19.02;;;12.10;;
68168;SDS011;54981;50.206;15.978;2022-10-30T16:10:14;23.70;;;12.82;;
68168;SDS011;54981;50.206;15.978;2022-10-30T16:12:41;20.48;;;13.35;;
68168;SDS011;54981;50.206;15.978;2022-10-30T16:15:07;15.73;;;10.05;;
68168;SDS011;54981;50.206;15.978;2022-10-30T16:17:48;19.10;;;10.48;;
68168;SDS011;54981;50.206;15.978;2022-10-30T16:20:13;19.95;;;10.18;;
68168;SDS011;54981;50.206;15.978;2022-10-30T16:22:41;18.15;;;10.20;;
68168;SDS011;54981;50.206;15.978;2022-10-30T16:25:07;11.90;;;9.68;;
68168;SDS011;54981;50.206;15.978;2022-10-30T16:27:43;21.40;;;9.02;;
68168;SDS011;54981;50.206;15.978;2022-10-30T16:30:13;11.13;;;8.75;;
68168;SDS011;54981;50.206;15.978;2022-10-30T16:32:40;19.85;;;10.75;;
68168;SDS011;54981;50.206;15.978;2022-10-30T16:35:16;22.20;;;10.85;;
68168;SDS011;54981;50.206;15.978;2022-10-30T16:37:44;13.25;;;10.88;;